Time;durP1;ratioP1;P1;durP2;ratioP2;P2;SDS_P1;SDS_P2;PMS_P1;PMS_P2;Temp;Humidity;BMP_temperature;BMP_pressure;BME280_temperature;BME280_humidity;BME280_pressure;Samples;Min_cycle;Max_cycle;Signal;HPM_P1;HPM_P2
2023/11/21 00:01:03;;;;;;;13.05;8.50;;;;;;;13.92;76.12;100509.78;5088984;27;101235;-73
2023/11/21 00:03:30;;;;;;;15.27;9.63;;;;;;;13.88;76.06;100510.91;5090022;27;99128;-74
2023/11/21 00:05:58;;;;;;;12.63;8.57;;;;;;;13.66;76.32;100505.84;5084853;27;97347;-73
2023/11/21 00:08:24;;;;;;;15.30;9.73;;;;;;;13.82;74.97;100509.44;5092848;27;96771;-73
2023/11/21 00:10:50;;;;;;;18.33;9.90;;;;;;;13.95;74.21;100518.47;5086528;27;97880;-74
2023/11/21 00:13:19;;;;;;;17.10;9.88;;;;;;;13.93;74.07;100520.34;5091643;27;100071;-73
2023/11/21 00:15:45;;;;;;;15.93;9.38;;;;;;;13.83;73.36;100521.78;5084426;27;96881;-73
2023/11/21 00:18:11;;;;;;;17.05;9.27;;;;;;;13.77;73.19;100532.72;5084327;27;97677;-74
2023/11/21 00:20:38;;;;;;;18.48;10.27;;;;;;;13.47;74.74;100534.25;5089707;27;99161;-73
2023/11/21 00:23:05;;;;;;;21.65;10.27;;;;;;;13.62;73.60;100533.50;5075534;27;99104;-74
2023/11/21 00:25:32;;;;;;;25.50;11.32;;;;;;;13.58;73.21;100534.59;5087226;27;96837;-73
2023/11/21 00:27:58;;;;;;;20.23;10.88;;;;;;;13.47;73.58;100537.78;5094153;27;96979;-73
2023/11/21 00:30:24;;;;;;;21.65;11.55;;;;;;;13.40;73.00;100543.47;5082407;27;99505;-73
2023/11/21 00:32:51;;;;;;;25.88;12.32;;;;;;;13.38;73.19;100548.88;5086767;27;98906;-74
2023/11/21 00:35:17;;;;;;;31.42;14.10;;;;;;;13.35;72.85;100551.66;5092319;27;96963;-73
2023/11/21 00:37:44;;;;;;;30.23;14.70;;;;;;;13.24;72.84;100539.88;5087847;27;96948;-74
2023/11/21 00:40:15;;;;;;;34.65;14.43;;;;;;;13.06;72.63;100557.53;5089081;27;99493;-73
2023/11/21 00:42:41;;;;;;;28.30;13.95;;;;;;;12.98;72.69;100552.59;5091330;27;96759;-74
2023/11/21 00:45:09;;;;;;;32.45;15.05;;;;;;;12.89;73.73;100555.69;5083892;27;97267;-74
2023/11/21 00:47:35;;;;;;;42.30;16.42;;;;;;;12.89;73.27;100560.97;5090306;27;96791;-73
2023/11/21 00:50:01;;;;;;;37.00;16.20;;;;;;;12.93;73.98;100565.19;5084541;27;100658;-74
2023/11/21 00:52:28;;;;;;;36.85;16.30;;;;;;;12.91;72.34;100564.44;5088593;27;102488;-74
2023/11/21 00:54:54;;;;;;;41.40;17.25;;;;;;;12.94;72.26;100563.41;5086775;27;96920;-74
2023/11/21 00:57:22;;;;;;;41.30;17.38;;;;;;;12.91;72.50;100563.56;5090239;27;96793;-74
2023/11/21 00:59:48;;;;;;;45.30;18.02;;;;;;;12.78;72.50;100569.47;5085011;27;99654;-74
2023/11/21 01:02:15;;;;;;;41.20;18.50;;;;;;;12.88;71.74;100574.31;5089254;27;99696;-73
2023/11/21 01:04:41;;;;;;;46.10;19.48;;;;;;;13.07;70.95;100572.50;5088507;27;98438;-73
2023/11/21 01:07:08;;;;;;;52.55;19.73;;;;;;;13.00;71.55;100577.22;5079088;27;97331;-74
2023/11/21 01:09:34;;;;;;;47.75;20.55;;;;;;;13.02;70.96;100571.88;5090364;27;98963;-74
2023/11/21 01:12:01;;;;;;;55.30;21.17;;;;;;;13.22;70.21;100587.72;5088300;27;100914;-74
2023/11/21 01:14:28;;;;;;;54.30;21.00;;;;;;;12.99;70.87;100585.28;5086518;27;96749;-73
2023/11/21 01:16:55;;;;;;;53.83;21.92;;;;;;;13.02;70.67;100593.94;5083203;27;96763;-74
2023/11/21 01:19:21;;;;;;;63.75;22.58;;;;;;;12.91;70.97;100600.69;5088206;27;98935;-74
2023/11/21 01:21:48;;;;;;;61.15;22.05;;;;;;;12.98;71.06;100596.81;5080912;27;101496;-73
2023/11/21 01:24:14;;;;;;;55.33;22.05;;;;;;;13.15;70.78;100597.75;5089428;27;96805;-72
2023/11/21 01:26:40;;;;;;;57.10;20.52;;;;;;;13.08;69.45;100603.41;5090012;27;96940;-73
2023/11/21 01:29:07;;;;;;;53.67;20.55;;;;;;;12.95;70.34;100608.44;5077980;27;99432;-73
2023/11/21 01:31:34;;;;;;;56.53;20.13;;;;;;;12.75;70.83;100617.31;5080882;27;97838;-73
2023/11/21 01:34:01;;;;;;;63.60;20.42;;;;;;;12.94;70.32;100612.00;5090195;27;96955;-72
2023/11/21 01:36:32;;;;;;;51.20;20.33;;;;;;;12.87;71.27;100613.22;5084467;27;96989;-72
2023/11/21 01:38:59;;;;;;;45.10;17.33;;;;;;;12.89;70.33;100616.69;5085710;27;99195;-72
2023/11/21 01:41:26;;;;;;;52.80;18.52;;;;;;;12.99;69.26;100617.13;5085118;27;99919;-73
2023/11/21 01:43:53;;;;;;;46.63;18.73;;;;;;;12.92;69.82;100618.34;5081135;27;96846;-72
2023/11/21 01:46:20;;;;;;;43.60;18.10;;;;;;;12.95;69.22;100612.88;5087774;27;97722;-72
2023/11/21 01:48:49;;;;;;;53.30;17.52;;;;;;;13.16;68.76;100611.88;5084825;27;98906;-71
2023/11/21 01:51:15;;;;;;;53.03;18.88;;;;;;;12.77;69.11;100619.91;5087412;27;98935;-71
2023/11/21 01:53:42;;;;;;;52.13;19.15;;;;;;;12.89;69.51;100624.63;5083641;27;98887;-72
2023/11/21 01:56:09;;;;;;;57.78;18.60;;;;;;;12.72;70.46;100628.09;5089127;27;97863;-73
2023/11/21 01:58:36;;;;;;;52.17;17.30;;;;;;;12.89;69.41;100624.63;5089768;27;99718;-72
2023/11/21 02:01:02;;;;;;;56.20;18.95;;;;;;;12.92;69.12;100628.94;5088383;27;98017;-71
2023/11/21 02:03:28;;;;;;;41.97;15.27;;;;;;;12.62;69.20;100647.09;5080825;27;96809;-73
2023/11/21 02:05:56;;;;;;;41.60;15.10;;;;;;;12.51;69.24;100644.09;5090093;27;96814;-73
2023/11/21 02:08:22;;;;;;;49.50;15.45;;;;;;;12.54;69.73;100638.63;5079846;27;99223;-73
2023/11/21 02:10:49;;;;;;;37.25;13.88;;;;;;;12.55;69.21;100646.53;5088338;27;99468;-73
2023/11/21 02:13:16;;;;;;;37.22;14.23;;;;;;;12.72;68.99;100646.63;5080455;27;96894;-73
2023/11/21 02:15:43;;;;;;;38.38;13.45;;;;;;;12.57;69.16;100642.03;5079022;27;97058;-73
2023/11/21 02:18:11;;;;;;;32.67;12.05;;;;;;;12.58;69.12;100650.84;5079822;27;97770;-73
2023/11/21 02:20:38;;;;;;;35.33;12.40;;;;;;;12.54;69.73;100657.19;5082931;27;99683;-73
2023/11/21 02:23:07;;;;;;;31.25;11.75;;;;;;;12.49;70.11;100651.25;5084138;27;96780;-73
2023/11/21 02:25:34;;;;;;;25.80;11.18;;;;;;;12.54;69.30;100654.53;5084244;27;96844;-73
2023/11/21 02:28:02;;;;;;;22.10;9.55;;;;;;;12.31;69.40;100648.50;5089295;27;99072;-73
2023/11/21 02:30:30;;;;;;;24.60;9.98;;;;;;;12.48;70.29;100658.34;5087881;27;99043;-73
2023/11/21 02:32:57;;;;;;;17.73;8.90;;;;;;;12.65;69.43;100646.97;5084094;27;96885;-72
2023/11/21 02:35:25;;;;;;;21.95;8.55;;;;;;;12.50;69.50;100656.47;5088870;27;97766;-71
2023/11/21 02:37:52;;;;;;;16.52;8.68;;;;;;;12.52;69.37;100659.06;5085625;27;101185;-72
2023/11/21 02:40:21;;;;;;;17.92;8.20;;;;;;;12.78;69.11;100664.06;5094134;27;99058;-72
2023/11/21 02:42:47;;;;;;;14.50;7.88;;;;;;;12.62;69.07;100665.66;5088837;27;96869;-72
2023/11/21 02:45:16;;;;;;;16.30;8.25;;;;;;;12.61;68.70;100666.59;5086240;27;97256;-74
2023/11/21 02:47:42;;;;;;;15.38;8.10;;;;;;;12.40;69.29;100663.13;5080323;27;102322;-73
2023/11/21 02:50:09;;;;;;;16.98;8.55;;;;;;;12.59;68.56;100671.13;5081822;27;99180;-74
2023/11/21 02:52:36;;;;;;;19.38;8.05;;;;;;;12.12;69.89;100668.78;5091477;27;96784;-73
2023/11/21 02:55:02;;;;;;;16.02;8.50;;;;;;;12.20;69.25;100658.72;5091066;27;98346;-73
2023/11/21 02:57:30;;;;;;;15.82;8.23;;;;;;;12.21;69.87;100668.34;5092927;27;97921;-74
2023/11/21 02:59:57;;;;;;;14.55;8.32;;;;;;;12.31;69.48;100667.03;5093102;27;99291;-73
2023/11/21 03:02:23;;;;;;;13.32;7.95;;;;;;;12.34;69.53;100672.19;5086731;27;96846;-75
2023/11/21 03:04:50;;;;;;;11.32;8.10;;;;;;;12.12;69.12;100671.41;5085352;27;96966;-75
2023/11/21 03:07:16;;;;;;;14.20;8.77;;;;;;;12.23;68.94;100678.88;5088121;27;99479;-75
2023/11/21 03:09:42;;;;;;;13.52;7.80;;;;;;;12.37;69.30;100680.00;5084536;27;97894;-75
2023/11/21 03:12:11;;;;;;;11.70;7.80;;;;;;;12.19;68.43;100686.13;5090008;27;96818;-74
2023/11/21 03:14:39;;;;;;;12.15;7.45;;;;;;;11.96;69.35;100680.91;5089085;27;97093;-74
2023/11/21 03:17:06;;;;;;;10.95;6.95;;;;;;;11.98;68.88;100687.88;5081342;27;99338;-75
2023/11/21 03:19:32;;;;;;;10.02;6.97;;;;;;;12.16;67.19;100686.25;5082843;27;98753;-74
2023/11/21 03:21:59;;;;;;;12.68;7.55;;;;;;;11.91;69.14;100685.56;5081327;27;96882;-74
2023/11/21 03:24:26;;;;;;;10.43;7.25;;;;;;;12.17;67.99;100690.63;5085878;27;97680;-73
2023/11/21 03:26:52;;;;;;;14.57;7.97;;;;;;;12.26;67.97;100703.47;5091480;27;101004;-75
2023/11/21 03:29:19;;;;;;;10.52;7.75;;;;;;;12.41;67.49;100701.94;5081135;27;98751;-74
2023/11/21 03:31:47;;;;;;;11.70;7.90;;;;;;;12.18;67.81;100708.25;5079782;27;97311;-73
2023/11/21 03:34:17;;;;;;;12.00;7.85;;;;;;;12.16;67.99;100714.50;5092871;27;96860;-73
2023/11/21 03:36:46;;;;;;;12.18;8.52;;;;;;;12.38;67.42;100721.50;5091396;27;99287;-74
2023/11/21 03:39:12;;;;;;;12.90;8.32;;;;;;;12.40;67.19;100725.88;5087489;27;102014;-74
2023/11/21 03:41:39;;;;;;;13.18;8.23;;;;;;;12.16;67.71;100722.47;5089954;27;96749;-75
2023/11/21 03:44:05;;;;;;;17.23;8.52;;;;;;;12.28;67.92;100722.78;5086710;27;97456;-74
2023/11/21 03:46:32;;;;;;;13.93;8.68;;;;;;;12.28;67.84;100727.22;5081242;27;99057;-75
2023/11/21 03:48:59;;;;;;;14.35;8.43;;;;;;;12.33;66.09;100723.47;5076263;27;98928;-75
2023/11/21 03:51:26;;;;;;;11.88;8.30;;;;;;;12.29;66.49;100735.13;5087191;27;97891;-75
2023/11/21 03:53:52;;;;;;;11.43;8.13;;;;;;;12.17;65.96;100733.00;5088962;27;96808;-73
2023/11/21 03:56:20;;;;;;;11.90;8.35;;;;;;;11.94;66.10;100735.75;5080285;27;99161;-74
2023/11/21 03:58:46;;;;;;;14.07;8.35;;;;;;;11.92;66.58;100738.47;5085456;27;98747;-73
2023/11/21 04:01:20;;;;;;;12.88;8.77;;;;;;;11.95;65.54;100735.66;5083578;27;97058;-74
2023/11/21 04:03:47;;;;;;;12.52;9.00;;;;;;;11.68;66.60;100738.56;5083904;27;96772;-74
2023/11/21 04:06:14;;;;;;;11.85;8.10;;;;;;;12.03;67.11;100743.31;5090680;27;98905;-73
2023/11/21 04:08:41;;;;;;;16.25;8.88;;;;;;;11.87;65.93;100748.38;5080286;27;98968;-74
2023/11/21 04:11:07;;;;;;;15.55;8.70;;;;;;;12.20;66.26;100756.72;5091426;27;96746;-73
2023/11/21 04:13:33;;;;;;;15.70;9.90;;;;;;;12.25;65.29;100749.44;5092633;27;96944;-74
2023/11/21 04:16:03;;;;;;;12.73;8.93;;;;;;;12.04;66.05;100760.91;5080477;27;99288;-73
2023/11/21 04:18:29;;;;;;;12.02;8.23;;;;;;;12.17;64.70;100755.97;5085167;27;98875;-74
2023/11/21 04:20:55;;;;;;;13.07;8.95;;;;;;;12.16;64.69;100765.72;5088680;27;97869;-74
2023/11/21 04:23:23;;;;;;;15.90;8.95;;;;;;;12.07;64.36;100765.25;5087261;27;96749;-74
2023/11/21 04:25:49;;;;;;;13.40;8.88;;;;;;;11.96;64.26;100773.59;5081913;27;98844;-74
2023/11/21 04:28:16;;;;;;;13.80;9.30;;;;;;;12.29;63.74;100776.66;5091759;27;99350;-74
2023/11/21 04:30:42;;;;;;;14.20;8.65;;;;;;;12.09;63.59;100774.81;5092669;27;97454;-73
2023/11/21 04:33:09;;;;;;;12.35;8.90;;;;;;;12.09;64.47;100772.19;5089187;27;97278;-74
2023/11/21 04:35:35;;;;;;;14.40;9.38;;;;;;;12.18;63.49;100770.94;5083641;27;99203;-73
2023/11/21 04:38:01;;;;;;;12.45;8.32;;;;;;;12.04;63.94;100776.81;5093356;27;98102;-74
2023/11/21 04:40:30;;;;;;;16.27;9.65;;;;;;;11.85;64.40;100778.47;5090258;27;96771;-74
2023/11/21 04:42:57;;;;;;;12.82;8.45;;;;;;;11.82;63.79;100782.09;5086433;27;96964;-73
2023/11/21 04:45:23;;;;;;;14.10;8.52;;;;;;;11.84;64.05;100787.34;5086731;27;99112;-73
2023/11/21 04:47:50;;;;;;;12.70;9.00;;;;;;;11.90;64.39;100787.09;5081813;27;99644;-75
2023/11/21 04:50:16;;;;;;;13.48;8.68;;;;;;;11.94;64.36;100792.22;5081315;27;96885;-75
2023/11/21 04:52:43;;;;;;;13.60;9.23;;;;;;;11.89;65.15;100794.19;5078885;27;96895;-75
2023/11/21 04:55:10;;;;;;;16.42;9.65;;;;;;;11.90;64.66;100790.59;5089646;27;99179;-74
2023/11/21 04:57:37;;;;;;;14.43;9.40;;;;;;;11.90;64.26;100793.25;5092411;27;98986;-74
2023/11/21 05:00:05;;;;;;;15.00;9.82;;;;;;;11.88;64.00;100791.63;5091070;27;98167;-75
2023/11/21 05:02:34;;;;;;;15.68;9.73;;;;;;;11.94;64.37;100800.19;5087486;27;99494;-74
2023/11/21 05:05:00;;;;;;;13.45;8.93;;;;;;;11.90;63.85;100802.97;5086615;27;99343;-74
2023/11/21 05:07:28;;;;;;;12.98;8.30;;;;;;;11.95;63.93;100803.66;5079756;27;99026;-74
2023/11/21 05:09:55;;;;;;;12.00;8.60;;;;;;;11.87;63.81;100803.13;5085839;27;98193;-74
2023/11/21 05:12:23;;;;;;;14.05;8.40;;;;;;;12.02;62.90;100813.09;5079805;27;97280;-75
2023/11/21 05:14:51;;;;;;;13.27;8.98;;;;;;;11.70;62.64;100808.16;5083090;27;99658;-75
2023/11/21 05:17:17;;;;;;;13.18;8.73;;;;;;;11.59;63.31;100817.41;5089087;27;101190;-75
2023/11/21 05:19:46;;;;;;;11.20;7.38;;;;;;;11.66;63.20;100828.63;5083753;27;96860;-75
2023/11/21 05:22:13;;;;;;;11.85;7.05;;;;;;;11.76;62.86;100831.78;5082410;27;97728;-74
2023/11/21 05:24:39;;;;;;;13.00;7.93;;;;;;;11.78;63.09;100828.16;5089139;27;99020;-76
2023/11/21 05:27:06;;;;;;;13.73;8.25;;;;;;;11.71;62.93;100831.06;5084552;27;98997;-76
2023/11/21 05:29:32;;;;;;;11.65;7.82;;;;;;;11.91;62.99;100834.72;5090259;27;96800;-76
2023/11/21 05:32:00;;;;;;;13.35;8.50;;;;;;;12.03;61.88;100828.06;5086838;27;96839;-75
2023/11/21 05:34:27;;;;;;;12.35;8.00;;;;;;;11.84;62.42;100825.28;5086273;27;101725;-75
2023/11/21 05:36:53;;;;;;;10.77;7.43;;;;;;;11.84;61.86;100842.94;5077213;27;100375;-75
2023/11/21 05:39:20;;;;;;;11.63;8.05;;;;;;;11.54;62.97;100844.97;5083871;27;99211;-76
2023/11/21 05:41:47;;;;;;;13.20;8.02;;;;;;;11.69;61.92;100849.66;5088081;27;97228;-76
2023/11/21 05:44:14;;;;;;;15.20;8.52;;;;;;;11.85;61.75;100847.31;5078727;27;97921;-76
2023/11/21 05:46:43;;;;;;;11.25;7.68;;;;;;;11.76;60.96;100852.97;5088014;27;98789;-75
2023/11/21 05:49:10;;;;;;;13.82;7.97;;;;;;;11.51;61.31;100861.81;5083294;27;96811;-75
2023/11/21 05:51:37;;;;;;;11.07;7.50;;;;;;;11.63;61.71;100863.13;5082487;27;98081;-75
2023/11/21 05:54:04;;;;;;;11.70;7.80;;;;;;;11.51;61.31;100861.81;5086014;27;97788;-75
2023/11/21 05:56:31;;;;;;;11.98;8.27;;;;;;;11.82;61.71;100866.81;5084961;27;99578;-75
2023/11/21 05:58:57;;;;;;;11.10;7.18;;;;;;;11.80;60.30;100865.19;5087938;27;96886;-75
2023/11/21 06:01:23;;;;;;;11.38;7.75;;;;;;;11.82;60.57;100869.47;5090297;27;96798;-74
2023/11/21 06:03:50;;;;;;;11.40;7.28;;;;;;;11.77;60.17;100873.22;5094255;27;98883;-73
2023/11/21 06:06:19;;;;;;;14.27;6.50;;;;;;;11.62;60.68;100873.78;5084675;27;101827;-73
2023/11/21 06:08:45;;;;;;;9.20;6.65;;;;;;;11.19;60.61;100881.50;5088991;27;97321;-73
2023/11/21 06:11:12;;;;;;;11.85;6.57;;;;;;;11.43;61.13;100882.41;5085471;27;97384;-74
2023/11/21 06:13:38;;;;;;;12.02;6.47;;;;;;;11.53;61.07;100891.72;5091374;27;98915;-73
2023/11/21 06:16:05;;;;;;;10.90;6.60;;;;;;;11.40;61.02;100893.09;5090073;27;99362;-74
2023/11/21 06:18:32;;;;;;;9.90;6.65;;;;;;;11.46;61.40;100898.19;5088842;27;97290;-74
2023/11/21 06:21:00;;;;;;;9.73;6.20;;;;;;;11.34;61.21;100906.56;5091658;27;98245;-74
2023/11/21 06:23:28;;;;;;;9.90;6.10;;;;;;;11.27;61.73;100902.41;5088931;27;100578;-74
2023/11/21 06:25:54;;;;;;;9.15;5.65;;;;;;;11.38;60.35;100915.22;5084952;27;102478;-73
2023/11/21 06:28:21;;;;;;;15.90;6.05;;;;;;;11.42;61.01;100917.72;5092192;27;97300;-75
2023/11/21 06:30:48;;;;;;;7.80;5.35;;;;;;;11.57;59.87;100925.09;5096357;27;97261;-73
2023/11/21 06:33:16;;;;;;;8.93;5.72;;;;;;;11.54;59.94;100919.94;5088964;27;99299;-73
2023/11/21 06:35:42;;;;;;;10.88;5.30;;;;;;;11.32;59.11;100926.03;5085331;27;98909;-72
2023/11/21 06:38:09;;;;;;;7.47;5.72;;;;;;;11.16;59.29;100933.63;5089840;27;96820;-72
2023/11/21 06:40:36;;;;;;;8.07;5.15;;;;;;;11.34;60.12;100938.31;5090199;27;98658;-72
2023/11/21 06:43:04;;;;;;;9.40;4.63;;;;;;;11.33;59.14;100941.88;5090891;27;99195;-74
2023/11/21 06:45:31;;;;;;;8.52;4.85;;;;;;;11.30;60.12;100941.09;5089415;27;100962;-73
2023/11/21 06:47:57;;;;;;;9.85;5.03;;;;;;;11.37;59.48;100950.53;5090467;27;96810;-73
2023/11/21 06:50:24;;;;;;;6.68;4.65;;;;;;;11.51;58.88;100951.78;5090305;27;97892;-73
2023/11/21 06:52:50;;;;;;;7.63;4.90;;;;;;;11.40;58.78;100953.09;5094677;27;98877;-73
2023/11/21 06:55:16;;;;;;;7.50;4.35;;;;;;;11.27;58.96;100951.81;5093013;27;99191;-73
2023/11/21 06:57:44;;;;;;;6.28;5.00;;;;;;;11.18;58.57;100948.56;5089619;27;96946;-74
2023/11/21 07:00:12;;;;;;;7.60;4.75;;;;;;;11.39;58.87;100961.94;5089913;27;96857;-73
2023/11/21 07:02:47;;;;;;;7.30;5.05;;;;;;;11.42;59.22;100957.41;5088199;27;97700;-73
2023/11/21 07:05:15;;;;;;;6.35;4.35;;;;;;;11.33;58.52;100955.09;5087288;27;99231;-73
2023/11/21 07:07:41;;;;;;;6.80;4.72;;;;;;;11.55;58.95;100958.69;5090288;27;96740;-73
2023/11/21 07:10:09;;;;;;;7.25;4.90;;;;;;;11.07;58.89;100963.06;5093901;27;96913;-72
2023/11/21 07:12:35;;;;;;;7.30;4.90;;;;;;;11.35;59.04;100955.03;5090307;27;99000;-72
2023/11/21 07:15:05;;;;;;;7.82;5.25;;;;;;;11.22;58.64;100962.56;5082375;27;99462;-73
2023/11/21 07:17:31;;;;;;;9.45;4.88;;;;;;;11.35;58.43;100966.50;5091841;27;97145;-73
2023/11/21 07:19:58;;;;;;;11.70;5.38;;;;;;;11.19;59.60;100970.56;5084263;27;96832;-74
2023/11/21 07:22:24;;;;;;;7.82;5.20;;;;;;;11.32;59.21;100974.53;5091618;27;99602;-73
2023/11/21 07:24:51;;;;;;;7.10;5.05;;;;;;;11.13;58.71;100971.66;5089889;27;99155;-73
2023/11/21 07:27:18;;;;;;;9.15;5.28;;;;;;;11.05;59.59;100973.69;5095056;27;97004;-74
2023/11/21 07:29:44;;;;;;;7.40;5.55;;;;;;;11.23;59.35;100971.31;5082149;27;97221;-72
2023/11/21 07:32:13;;;;;;;7.10;4.72;;;;;;;11.30;58.93;100967.53;5087193;27;98907;-75
2023/11/21 07:34:39;;;;;;;8.57;5.18;;;;;;;11.31;59.49;100977.22;5090693;27;97606;-73
2023/11/21 07:37:06;;;;;;;8.15;5.45;;;;;;;11.26;59.26;100969.44;5078584;27;97728;-75
2023/11/21 07:39:33;;;;;;;7.05;4.70;;;;;;;11.34;58.83;100985.06;5077881;27;98836;-75
2023/11/21 07:41:59;;;;;;;7.50;4.65;;;;;;;11.15;58.88;100984.84;5083304;27;99538;-74
2023/11/21 07:44:26;;;;;;;8.38;5.07;;;;;;;11.17;59.24;100989.13;5091952;27;101160;-75
2023/11/21 07:46:52;;;;;;;8.55;4.80;;;;;;;11.21;59.97;100989.03;5091375;27;96919;-75
2023/11/21 07:49:21;;;;;;;7.35;5.10;;;;;;;11.34;59.67;100988.56;5084466;27;97322;-73
2023/11/21 07:51:47;;;;;;;30.70;7.00;;;;;;;11.17;60.69;100991.78;5083570;27;99119;-74
2023/11/21 07:54:14;;;;;;;9.00;5.05;;;;;;;11.08;60.27;100994.75;5089323;27;101944;-74
2023/11/21 07:56:41;;;;;;;10.23;5.60;;;;;;;11.18;60.77;100987.34;5081850;27;97625;-75
2023/11/21 07:59:07;;;;;;;9.43;5.82;;;;;;;11.51;59.22;100996.78;5086483;27;97279;-74
2023/11/21 08:01:33;;;;;;;5.82;4.40;;;;;;;11.27;58.35;100994.13;5085859;27;101084;-73
2023/11/21 08:04:03;;;;;;;6.68;4.95;;;;;;;11.40;58.65;101001.59;5092741;27;98601;-74
2023/11/21 08:06:31;;;;;;;6.53;4.65;;;;;;;11.24;58.96;101013.59;5083590;27;97321;-73
2023/11/21 08:08:58;;;;;;;6.40;4.75;;;;;;;11.37;58.67;101017.56;5085452;27;97885;-74
2023/11/21 08:11:24;;;;;;;7.72;4.80;;;;;;;11.04;59.47;101019.56;5081423;27;101113;-74
2023/11/21 08:13:51;;;;;;;10.02;4.75;;;;;;;11.26;59.49;101029.44;5079934;27;97331;-74
2023/11/21 08:16:17;;;;;;;5.63;4.47;;;;;;;11.26;59.71;101030.28;5085522;27;97392;-73
2023/11/21 08:18:43;;;;;;;17.17;5.10;;;;;;;11.26;59.69;101035.59;5092248;27;96827;-74
2023/11/21 08:21:12;;;;;;;8.05;4.47;;;;;;;11.33;59.03;101037.09;5081722;27;98956;-75
2023/11/21 08:23:40;;;;;;;8.20;5.50;;;;;;;11.46;59.15;101029.63;5093636;27;98954;-74
2023/11/21 08:26:08;;;;;;;7.97;5.43;;;;;;;11.33;59.81;101029.16;5089594;27;97366;-74
2023/11/21 08:28:35;;;;;;;7.30;4.75;;;;;;;11.55;59.05;101027.50;5078257;27;97199;-74
2023/11/21 08:31:01;;;;;;;6.85;4.72;;;;;;;11.29;59.58;101037.28;5077924;27;101507;-73
2023/11/21 08:33:28;;;;;;;7.63;4.97;;;;;;;11.42;58.80;101046.53;5088709;27;98871;-74
2023/11/21 08:35:54;;;;;;;11.80;5.05;;;;;;;11.51;58.59;101040.91;5079608;27;97637;-74
2023/11/21 08:38:21;;;;;;;7.25;4.07;;;;;;;11.44;57.95;101040.25;5088593;27;97011;-74
2023/11/21 08:40:49;;;;;;;8.45;4.35;;;;;;;11.33;57.72;101042.41;5085698;27;100733;-74
2023/11/21 08:43:16;;;;;;;6.13;3.90;;;;;;;11.38;57.38;101047.53;5089778;27;99980;-75
2023/11/21 08:45:42;;;;;;;6.38;4.35;;;;;;;11.40;57.04;101048.34;5081936;27;97380;-75
2023/11/21 08:48:11;;;;;;;12.10;4.30;;;;;;;11.40;57.62;101040.41;5080066;27;98546;-75
2023/11/21 08:50:37;;;;;;;7.70;4.10;;;;;;;11.23;58.19;101055.97;5086995;27;98195;-74
2023/11/21 08:53:05;;;;;;;9.23;4.25;;;;;;;11.25;57.86;101056.78;5086166;27;99301;-74
2023/11/21 08:55:37;;;;;;;12.45;7.20;;;;;;;11.39;57.39;101067.78;5077366;27;96821;-75
2023/11/21 08:58:06;;;;;;;7.82;4.45;;;;;;;11.46;57.24;101062.22;5090398;27;97084;-73
2023/11/21 09:00:33;;;;;;;13.35;4.70;;;;;;;11.48;57.34;101073.63;5074885;27;99412;-72
2023/11/21 09:03:01;;;;;;;9.05;4.55;;;;;;;11.30;57.50;101078.66;5076229;27;101465;-74
2023/11/21 09:05:28;;;;;;;9.55;4.78;;;;;;;11.29;57.73;101072.50;5078632;27;97020;-74
2023/11/21 09:07:54;;;;;;;10.55;4.38;;;;;;;11.38;57.38;101073.97;5080324;27;97095;-73
2023/11/21 09:10:21;;;;;;;10.63;4.90;;;;;;;11.16;57.06;101079.97;5082862;27;101616;-74
2023/11/21 09:12:48;;;;;;;9.55;4.18;;;;;;;11.19;57.81;101082.53;5076378;27;98852;-74
2023/11/21 09:15:15;;;;;;;12.43;4.70;;;;;;;11.03;58.74;101096.28;5087045;27;96798;-72
2023/11/21 09:17:43;;;;;;;9.65;4.95;;;;;;;11.05;58.79;101105.91;5077648;27;100572;-73
2023/11/21 09:20:10;;;;;;;13.10;5.20;;;;;;;11.25;58.30;101102.63;5086898;27;98839;-73
2023/11/21 09:22:37;;;;;;;12.43;5.18;;;;;;;11.26;58.41;101112.31;5082052;27;99127;-74
2023/11/21 09:25:05;;;;;;;10.95;4.93;;;;;;;11.63;58.12;101111.06;5084947;27;96782;-73
2023/11/21 09:27:31;;;;;;;9.93;5.38;;;;;;;11.48;58.10;101110.69;5079511;27;97109;-77
2023/11/21 09:29:58;;;;;;;10.70;5.28;;;;;;;11.78;57.91;101105.28;5080581;27;101287;-73
2023/11/21 09:32:26;;;;;;;10.50;5.20;;;;;;;11.65;57.45;101122.47;5088821;27;98384;-73
2023/11/21 09:34:53;;;;;;;12.93;5.93;;;;;;;11.93;56.86;101120.66;5088649;27;97858;-73
2023/11/21 09:37:20;;;;;;;13.23;5.55;;;;;;;11.80;56.08;101120.22;5092081;27;96845;-73
2023/11/21 09:39:47;;;;;;;18.95;6.25;;;;;;;11.78;56.56;101129.13;5087495;27;98170;-73
2023/11/21 09:42:18;;;;;;;12.73;5.10;;;;;;;11.92;56.82;101132.16;5085543;27;98204;-73
2023/11/21 09:44:49;;;;;;;13.13;5.57;;;;;;;11.84;57.07;101135.06;5091549;27;97062;-74
2023/11/21 09:47:16;;;;;;;16.65;6.05;;;;;;;11.94;56.07;101127.69;5088517;27;96735;-74
2023/11/21 09:49:49;;;;;;;17.38;6.40;;;;;;;11.69;55.79;101134.69;5087365;27;99292;-74
2023/11/21 09:52:26;;;;;;;16.90;6.30;;;;;;;11.71;56.42;101131.06;5085354;27;99381;-74
2023/11/21 09:54:54;;;;;;;21.50;6.65;;;;;;;11.75;56.79;101150.41;5081796;27;98153;-74
2023/11/21 09:57:22;;;;;;;15.30;6.45;;;;;;;11.80;56.80;101153.75;5083284;27;96804;-75
2023/11/21 09:59:52;;;;;;;20.08;7.10;;;;;;;11.73;57.09;101146.91;5082148;27;99085;-75
2023/11/21 10:02:20;;;;;;;19.52;7.00;;;;;;;11.83;57.72;101145.69;5088417;27;100962;-73
2023/11/21 10:04:49;;;;;;;16.52;6.75;;;;;;;11.71;57.77;101146.94;5086320;27;96989;-75
2023/11/21 10:07:18;;;;;;;16.88;6.80;;;;;;;11.49;58.13;101154.72;5088400;27;97673;-74
2023/11/21 10:09:45;;;;;;;18.15;6.50;;;;;;;11.53;59.24;101150.22;5086303;27;100571;-74
2023/11/21 10:12:14;;;;;;;15.30;6.20;;;;;;;11.55;58.48;101151.88;5085304;27;101555;-74
2023/11/21 10:14:43;;;;;;;23.73;7.75;;;;;;;11.54;58.09;101160.75;5087448;27;97063;-75
2023/11/21 10:17:13;;;;;;;17.92;5.85;;;;;;;11.53;58.78;101158.16;5089130;27;101134;-74
2023/11/21 10:19:40;;;;;;;14.23;6.68;;;;;;;11.47;58.09;101164.53;5084217;27;99812;-74
2023/11/21 10:22:09;;;;;;;12.07;6.35;;;;;;;11.43;57.48;101165.53;5088140;27;101793;-75
2023/11/21 10:24:36;;;;;;;20.45;6.95;;;;;;;11.30;59.01;101164.19;5085602;27;97353;-75
2023/11/21 10:27:03;;;;;;;15.52;7.55;;;;;;;11.25;58.77;101159.97;5084121;27;98453;-75
2023/11/21 10:29:30;;;;;;;14.50;6.88;;;;;;;11.31;59.23;101167.69;5083817;27;98894;-75
2023/11/21 10:31:58;;;;;;;13.13;5.80;;;;;;;11.14;58.95;101168.25;5083638;27;98149;-74
2023/11/21 10:34:27;;;;;;;12.57;5.85;;;;;;;10.91;60.62;101165.41;5085821;27;98330;-75
2023/11/21 10:36:53;;;;;;;15.35;5.93;;;;;;;11.11;59.80;101163.03;5087853;27;96832;-76
2023/11/21 10:39:23;;;;;;;;;;;;;;;11.13;60.33;101172.66;5088931;27;99079;-75
2023/11/21 10:41:50;;;;;;;8.93;4.78;;;;;;;10.98;60.11;101180.19;5090855;27;98963;-74
2023/11/21 10:44:21;;;;;;;8.48;4.75;;;;;;;11.18;60.62;101177.81;5092488;27;97169;-73
2023/11/21 10:46:50;;;;;;;10.20;4.68;;;;;;;11.11;60.86;101179.75;5088737;27;97967;-74
2023/11/21 10:49:17;;;;;;;10.43;4.68;;;;;;;11.40;60.28;101180.66;5083195;27;97760;-72
2023/11/21 10:51:45;;;;;;;8.40;4.53;;;;;;;11.43;60.95;101186.69;5085259;27;99567;-73
2023/11/21 10:54:12;;;;;;;11.13;4.10;;;;;;;11.35;61.68;101187.88;5092486;27;96720;-73
2023/11/21 10:56:42;;;;;;;10.25;4.85;;;;;;;11.27;60.91;101192.53;5083009;27;97143;-72
2023/11/21 10:59:11;;;;;;;11.35;4.38;;;;;;;11.46;61.26;101196.31;5081621;27;99453;-72
2023/11/21 11:01:39;;;;;;;11.02;4.53;;;;;;;11.13;61.97;101199.09;5088186;27;99117;-72
2023/11/21 11:04:14;;;;;;;13.20;4.35;;;;;;;11.26;62.15;101204.88;5088130;27;98202;-72
2023/11/21 11:06:42;;;;;;;12.30;4.00;;;;;;;11.30;61.63;101193.28;5081484;27;97644;-72
2023/11/21 11:09:09;;;;;;;4.25;3.25;;;;;;;11.19;62.43;101206.84;5082736;27;98949;-73
2023/11/21 11:11:38;;;;;;;4.65;3.38;;;;;;;11.16;62.29;101204.28;5081762;27;100715;-72
2023/11/21 11:14:06;;;;;;;8.75;4.35;;;;;;;11.08;62.70;101200.16;5085350;27;98769;-72
2023/11/21 11:16:34;;;;;;;6.07;3.22;;;;;;;11.07;62.09;101206.38;5084836;27;100439;-72